デリー の空港の天気 - METARとTAF

インディラ・ガンディー国際空港 ( VIDP / DEL ) - インド デリー
飛行場実況気象(Metar)
観測時間08/16 12:00 IST (08/16 06:30 UTC)
風向・風速東 2m/s
視程3000m
天気現象煙霧
全天の4割程度の雲 雲底高度 910m
全天の8割程度の雲 雲底高度 3050m
気温34℃
湿度63%
気圧1004hPa
METARVIDP 160630Z 08004KT 3000 HZ SCT030 BKN100 34/26 Q1004 NOSIG
過去の天気等 Google飛行場航空写真 Wunderground天気予報

過去48時間のMETAR

飛行場予報(TAF)
発表時間: 8/16 10:30 IST (8/16 05:00 UTC)
予報対象時間: 16日11時 IST ~ 17日17時 IST
風向・風速南東 4m/s
視程3500m
天気現象煙霧
全天の4割程度の雲 雲底高度 1070m
全天の4割程度の雲 雲底高度 3050m
16日14時 IST ~ 16日18時 IST に一時的に
少しの積乱雲 雲底高度 1220m
16日23時 IST ~ 17日1時 IST に徐々に
風向・風速東 2m/s
視程2500m
天気現象もや
17日2時 IST ~ 17日7時 IST に一時的に
視程1500m
天気現象弱い雷雨
少しの積乱雲 雲底高度 1070m
全天の8割程度の雲 雲底高度 2740m
17日10時 IST ~ 17日12時 IST に徐々に
風向・風速南東 4m/s
視程3500m
天気現象煙霧
TAF VIDP 160500Z 1606/1712 13007KT 3500 HZ SCT035 SCT100
TEMPO 1609/1613 FEW040CB
BECMG 1618/1620 09003KT 2500 BR
TEMPO 1621/1702 1500 -TSRA FEW035CB BKN090
BECMG 1705/1707 13007KT 3500 HZ